EGNR/CEG METAR and TAF weather

Enter ICAO airport designator
Station Type Date Time Source
EGNR METAR 2022/05/24 19:50 UTC NOAA

EGNR 241950Z 23008KT 9999 FEW040 12/07 Q1009


Station Type Date Time Source
EGNR Decoded METAR 2022/05/24 19:50 UTC NOAA

Hawarden, United Kingdom (EGNR) 53-10N 002-59W 0M
May 24, 2022 - 03:50 PM EDT / 2022.05.24 1950 UTC
Wind: from the SW (230 degrees) at 9 MPH (8 KT):0
Visibility: greater than 7 mile(s):0
Sky conditions: mostly clear
Temperature: 53 F (12 C)
Dew Point: 44 F (7 C)
Relative Humidity: 71%
Pressure (altimeter): 29.80 in. Hg (1009 hPa)
ob: EGNR 241950Z 23008KT 9999 FEW040 12/07 Q1009
cycle: 20

Station Type Date Time Source
EGNR TAF 2016/01/23 12:00 UTC NOAA

TAF EGNR 231059Z 2312/2319 15009KT 9999 FEW020
BECMG 2316/2319 BKN014
TEMPO 2317/2319 6000 RA BKN008

Example: see airport list